Grandview, Tennessee
Current Conditions -  °F | °C
As of 4:53 AM on Sunday 23 Nov 2014 (Local Time) from KCSV Reporting Station
Overcast Overcast  
Wind Chill: 54°   Ceiling: 2000
Heat Index: 54°   Visibility: 10mi
Dew Point: 36°   Wind: 6mph
Humidity: 51%   Direction: NA
Pressure: 30.03"   Gusts: NA
Location:  35.74°N, 84.84°W
Report Text: KCSV 230953Z AUTO VRB05KT 10SM OVC020 12/02 A3003 RMK AO2 SLP162 T01220022
Loading
Personal Weather Stations






























Interactive Weather Map New forecast layout! Learn more

10-Day Weather Forecast

Advertisements
Track Severe Weather on mobile